createdAt,value
2023-01-29T00:02:19.705Z,7.90
2023-01-29T00:04:49.223Z,17.77
2023-01-29T00:07:17.172Z,9.20
2023-01-29T00:09:52.518Z,11.88
2023-01-29T00:12:20.500Z,11.40
2023-01-29T00:14:48.330Z,12.98
2023-01-29T00:17:16.368Z,13.25
2023-01-29T00:19:44.219Z,9.50
2023-01-29T00:22:13.675Z,12.45
2023-01-29T00:24:41.438Z,10.45
2023-01-29T00:27:09.384Z,9.75
2023-01-29T00:29:37.159Z,10.02
2023-01-29T00:32:05.636Z,10.23
2023-01-29T00:34:33.723Z,6.35
2023-01-29T00:37:09.016Z,9.02
2023-01-29T00:39:47.720Z,10.43
2023-01-29T00:42:33.639Z,7.60
2023-01-29T00:45:01.551Z,8.40
2023-01-29T00:47:33.550Z,8.23
2023-01-29T00:50:02.197Z,8.25
2023-01-29T00:52:30.403Z,8.10
2023-01-29T00:55:01.476Z,8.77
2023-01-29T00:57:31.981Z,7.30
2023-01-29T01:00:00.325Z,8.88
2023-01-29T01:02:46.778Z,8.85
2023-01-29T01:05:18.919Z,9.50
2023-01-29T01:07:48.932Z,10.00
2023-01-29T01:10:22.575Z,8.23
2023-01-29T01:12:54.574Z,10.57
2023-01-29T01:15:23.587Z,9.25
2023-01-29T01:17:54.021Z,8.00
2023-01-29T01:20:23.288Z,8.90
2023-01-29T01:22:54.201Z,7.28
2023-01-29T01:25:23.982Z,6.55
2023-01-29T01:27:53.906Z,10.68
2023-01-29T01:30:22.210Z,8.70
2023-01-29T01:32:50.552Z,9.00
2023-01-29T01:35:18.872Z,9.25
2023-01-29T01:37:46.865Z,9.60
2023-01-29T01:40:18.987Z,9.60
2023-01-29T01:42:50.967Z,7.30
2023-01-29T01:45:21.662Z,7.72
2023-01-29T01:47:54.854Z,12.05
2023-01-29T01:50:27.850Z,7.97
2023-01-29T01:53:00.932Z,10.27
2023-01-29T01:55:32.772Z,7.22
2023-01-29T01:58:07.701Z,9.65
2023-01-29T02:00:35.590Z,13.60
2023-01-29T02:03:22.566Z,9.50
2023-01-29T02:06:09.536Z,9.38
2023-01-29T02:09:03.895Z,9.48
2023-01-29T02:11:32.215Z,10.25
2023-01-29T02:14:01.764Z,10.65
2023-01-29T02:16:29.833Z,9.85
2023-01-29T02:18:58.190Z,12.43
2023-01-29T02:21:42.898Z,8.15
2023-01-29T02:24:46.312Z,11.77
2023-01-29T02:27:18.202Z,8.50
2023-01-29T02:29:56.166Z,10.10
2023-01-29T02:32:31.826Z,9.70
2023-01-29T02:35:29.801Z,10.48
2023-01-29T02:38:06.897Z,8.48
2023-01-29T02:40:42.066Z,7.57
2023-01-29T02:43:19.928Z,8.05
2023-01-29T02:45:55.187Z,8.48
2023-01-29T02:48:26.607Z,11.52
2023-01-29T02:51:00.553Z,10.82
2023-01-29T02:53:35.858Z,9.48
2023-01-29T02:56:11.312Z,9.25
2023-01-29T02:58:44.365Z,7.85
2023-01-29T03:01:18.552Z,8.15
2023-01-29T03:03:53.817Z,11.32
2023-01-29T03:06:26.235Z,10.02
2023-01-29T03:08:58.786Z,9.88
2023-01-29T03:11:30.717Z,10.45
2023-01-29T03:14:03.829Z,8.73
2023-01-29T03:16:37.884Z,14.60
2023-01-29T03:19:09.829Z,16.50
2023-01-29T03:22:00.077Z,10.98
2023-01-29T03:24:56.211Z,8.30
2023-01-29T03:27:48.484Z,9.38
2023-01-29T03:30:38.915Z,9.52
2023-01-29T03:33:25.518Z,11.50
2023-01-29T03:36:00.894Z,7.60
2023-01-29T03:38:31.710Z,9.68
2023-01-29T03:41:09.091Z,9.05
2023-01-29T03:43:44.479Z,7.65
2023-01-29T03:46:19.418Z,10.55
2023-01-29T03:48:56.846Z,9.50
2023-01-29T03:51:31.278Z,11.50
2023-01-29T03:54:08.580Z,12.48
2023-01-29T03:56:45.279Z,8.43
2023-01-29T03:59:36.073Z,13.00
2023-01-29T04:02:36.142Z,8.98
2023-01-29T04:05:15.876Z,11.05
2023-01-29T04:08:00.364Z,7.80
2023-01-29T04:10:30.536Z,10.10
2023-01-29T04:13:03.211Z,10.50
2023-01-29T04:15:37.502Z,10.18
2023-01-29T04:18:06.137Z,9.75
2023-01-29T04:20:56.908Z,13.05
2023-01-29T04:23:27.022Z,9.68
2023-01-29T04:26:15.525Z,11.30
2023-01-29T04:28:54.960Z,10.40
2023-01-29T04:31:29.321Z,11.38
2023-01-29T04:34:08.157Z,10.15
2023-01-29T04:36:43.718Z,10.65
2023-01-29T04:39:19.358Z,9.82
2023-01-29T04:41:55.058Z,8.38
2023-01-29T04:44:31.114Z,12.40
2023-01-29T04:47:07.972Z,10.02
2023-01-29T04:49:44.491Z,10.25
2023-01-29T04:52:22.156Z,10.05
2023-01-29T04:55:02.481Z,13.55
2023-01-29T04:57:35.513Z,10.02
2023-01-29T05:00:09.737Z,7.93
2023-01-29T05:02:42.027Z,8.07
2023-01-29T05:05:12.258Z,7.82
2023-01-29T05:07:43.833Z,10.45
2023-01-29T05:10:15.860Z,9.57
2023-01-29T05:12:47.700Z,8.93
2023-01-29T05:15:19.245Z,10.90
2023-01-29T05:17:47.130Z,11.82
2023-01-29T05:20:15.173Z,8.18
2023-01-29T05:22:45.947Z,10.88
2023-01-29T05:25:22.594Z,8.88
2023-01-29T05:28:06.689Z,10.23
2023-01-29T05:30:36.268Z,8.10
2023-01-29T05:33:04.976Z,9.52
2023-01-29T05:35:33.097Z,9.43
2023-01-29T05:38:02.325Z,9.75
2023-01-29T05:40:30.318Z,7.53
2023-01-29T05:42:58.241Z,10.65
2023-01-29T05:45:26.388Z,9.30
2023-01-29T05:47:57.066Z,12.40
2023-01-29T05:50:25.794Z,11.40
2023-01-29T05:52:57.882Z,12.43
2023-01-29T05:55:29.307Z,12.07
2023-01-29T05:57:57.193Z,10.82
2023-01-29T06:00:25.584Z,11.65
2023-01-29T06:02:54.063Z,11.63
2023-01-29T06:05:22.065Z,13.40
2023-01-29T06:07:50.039Z,9.82
2023-01-29T06:10:19.810Z,12.98
2023-01-29T06:12:49.290Z,12.23
2023-01-29T06:15:19.644Z,10.52
2023-01-29T06:17:47.677Z,9.68
2023-01-29T06:20:15.906Z,13.10
2023-01-29T06:22:44.043Z,13.02
2023-01-29T06:25:11.908Z,10.65
2023-01-29T06:27:39.767Z,11.07
2023-01-29T06:30:12.725Z,11.65
2023-01-29T06:32:40.589Z,13.38
2023-01-29T06:35:10.172Z,10.98
2023-01-29T06:37:38.476Z,9.85
2023-01-29T06:40:07.236Z,11.13
2023-01-29T06:42:36.614Z,10.70
2023-01-29T06:45:05.002Z,10.13
2023-01-29T06:47:34.460Z,7.90
2023-01-29T06:50:02.530Z,13.55
2023-01-29T06:52:30.405Z,12.10
2023-01-29T06:54:58.410Z,13.48
2023-01-29T06:57:26.301Z,15.05
2023-01-29T06:59:54.119Z,12.98
2023-01-29T07:02:21.979Z,13.35
2023-01-29T07:04:51.142Z,17.65
2023-01-29T07:07:19.006Z,14.40
2023-01-29T07:09:46.878Z,15.80
2023-01-29T07:12:14.741Z,9.52
2023-01-29T07:14:42.582Z,13.30
2023-01-29T07:17:10.370Z,14.20
2023-01-29T07:19:38.262Z,16.13
2023-01-29T07:22:07.582Z,12.20
2023-01-29T07:24:35.463Z,18.90
2023-01-29T07:27:03.386Z,12.75
2023-01-29T07:29:31.174Z,19.60
2023-01-29T07:31:59.289Z,16.95
2023-01-29T07:34:27.367Z,20.83
2023-01-29T07:36:56.847Z,17.92
2023-01-29T07:39:26.019Z,16.80
2023-01-29T07:41:54.053Z,16.50
2023-01-29T07:44:24.063Z,19.38
2023-01-29T07:46:52.026Z,19.30
2023-01-29T07:49:19.890Z,17.70
2023-01-29T07:51:47.733Z,15.05
2023-01-29T07:54:15.816Z,15.73
2023-01-29T07:56:45.082Z,19.10
2023-01-29T07:59:12.936Z,21.67
2023-01-29T08:01:40.899Z,19.95
2023-01-29T08:04:08.672Z,19.45
2023-01-29T08:06:36.487Z,17.42
2023-01-29T08:09:04.415Z,19.70
2023-01-29T08:11:32.238Z,17.33
2023-01-29T08:14:01.475Z,21.25
2023-01-29T08:16:29.381Z,25.75
2023-01-29T08:18:57.199Z,22.00
2023-01-29T08:21:25.011Z,17.23
2023-01-29T08:23:52.871Z,19.25
2023-01-29T08:26:20.741Z,22.48
2023-01-29T08:28:48.525Z,19.23
2023-01-29T08:31:20.531Z,24.73
2023-01-29T08:33:48.498Z,20.65
2023-01-29T08:36:16.670Z,22.23
2023-01-29T08:38:44.563Z,17.25
2023-01-29T08:41:12.438Z,18.20
2023-01-29T08:43:40.605Z,24.38
2023-01-29T08:46:13.937Z,21.23
2023-01-29T08:48:46.855Z,19.83
2023-01-29T08:51:15.977Z,20.88
2023-01-29T08:53:45.303Z,22.88
2023-01-29T08:56:13.550Z,20.13
2023-01-29T08:58:41.322Z,22.73
2023-01-29T09:01:10.506Z,20.40
2023-01-29T09:03:40.907Z,22.23
2023-01-29T09:06:11.112Z,19.17
2023-01-29T09:08:39.505Z,20.55
2023-01-29T09:11:07.974Z,20.65
2023-01-29T09:13:35.970Z,21.02
2023-01-29T09:16:05.399Z,26.02
2023-01-29T09:18:33.129Z,17.17
2023-01-29T09:21:02.551Z,17.40
2023-01-29T09:23:32.108Z,18.27
2023-01-29T09:26:00.518Z,18.65
2023-01-29T09:28:28.847Z,20.30
2023-01-29T09:30:57.079Z,18.73
2023-01-29T09:33:26.150Z,16.20
2023-01-29T09:35:53.938Z,21.25
2023-01-29T09:38:21.847Z,20.40
2023-01-29T09:40:58.918Z,18.50
2023-01-29T09:43:40.324Z,19.48
2023-01-29T09:46:18.559Z,19.45
2023-01-29T09:48:47.815Z,21.75
2023-01-29T09:51:23.741Z,17.30
2023-01-29T09:53:58.522Z,16.70
2023-01-29T09:56:29.070Z,19.27
2023-01-29T09:59:01.351Z,22.48
2023-01-29T10:01:38.183Z,19.08
2023-01-29T10:04:29.787Z,22.17
2023-01-29T10:07:09.367Z,18.63
2023-01-29T10:09:58.266Z,21.35
2023-01-29T10:12:47.261Z,20.60
2023-01-29T10:15:29.019Z,18.90
2023-01-29T10:18:16.100Z,17.92
2023-01-29T10:20:56.347Z,19.55
2023-01-29T10:23:27.860Z,16.45
2023-01-29T10:25:56.235Z,18.30
2023-01-29T10:28:31.209Z,25.40
2023-01-29T10:31:03.552Z,18.15
2023-01-29T10:33:49.540Z,17.08
2023-01-29T10:36:33.804Z,20.23
2023-01-29T10:39:01.813Z,19.40
2023-01-29T10:42:03.718Z,17.10
2023-01-29T10:44:44.383Z,18.92
2023-01-29T10:47:49.294Z,21.58
2023-01-29T10:50:24.717Z,18.35
2023-01-29T10:53:08.248Z,16.77
2023-01-29T10:55:48.468Z,15.30
2023-01-29T10:58:28.614Z,16.00
2023-01-29T11:00:57.890Z,19.73
2023-01-29T11:03:29.041Z,17.23
2023-01-29T11:06:09.115Z,14.15
2023-01-29T11:08:41.542Z,15.95
2023-01-29T11:11:14.054Z,14.68
2023-01-29T11:13:48.159Z,17.75
2023-01-29T11:16:17.539Z,14.43
2023-01-29T11:18:55.192Z,12.98
2023-01-29T11:21:24.457Z,12.10
2023-01-29T11:23:52.753Z,17.10
2023-01-29T11:26:24.241Z,12.45
2023-01-29T11:28:52.574Z,19.27
2023-01-29T11:31:24.481Z,16.80
2023-01-29T11:33:55.183Z,16.50
2023-01-29T11:36:32.857Z,14.75
2023-01-29T11:39:21.599Z,15.07
2023-01-29T11:41:58.326Z,15.60
2023-01-29T11:44:32.192Z,16.23
2023-01-29T11:47:18.083Z,10.90
2023-01-29T11:49:49.174Z,17.50
2023-01-29T11:52:19.874Z,13.77
2023-01-29T11:54:51.852Z,15.07
2023-01-29T11:57:27.431Z,13.00
2023-01-29T11:59:57.983Z,15.52
2023-01-29T12:02:34.301Z,13.23
2023-01-29T12:05:05.659Z,13.52
2023-01-29T12:07:35.520Z,15.15
2023-01-29T12:10:04.540Z,22.23
2023-01-29T12:12:37.946Z,9.35
2023-01-29T12:15:16.999Z,16.73
2023-01-29T12:17:51.942Z,14.00
2023-01-29T12:20:25.359Z,17.20
2023-01-29T12:23:02.384Z,13.45
2023-01-29T12:25:41.612Z,17.95
2023-01-29T12:28:21.185Z,13.98
2023-01-29T12:30:56.048Z,13.98
2023-01-29T12:33:39.238Z,15.32
2023-01-29T12:36:22.056Z,13.52
2023-01-29T12:38:50.280Z,13.63
2023-01-29T12:41:29.964Z,10.38
2023-01-29T12:44:03.737Z,16.25
2023-01-29T12:46:38.889Z,18.77
2023-01-29T12:49:17.594Z,16.58
2023-01-29T12:51:56.648Z,15.60
2023-01-29T12:54:32.380Z,10.35
2023-01-29T12:57:06.044Z,11.65
2023-01-29T12:59:41.032Z,15.90
2023-01-29T13:02:20.726Z,17.88
2023-01-29T13:05:01.137Z,13.38
2023-01-29T13:07:33.362Z,14.63
2023-01-29T13:10:08.395Z,13.50
2023-01-29T13:12:38.131Z,14.15
2023-01-29T13:15:16.653Z,15.20
2023-01-29T13:17:48.672Z,17.65
2023-01-29T13:20:24.098Z,19.80
2023-01-29T13:22:56.735Z,14.55
2023-01-29T13:25:26.642Z,14.55
2023-01-29T13:27:54.921Z,14.57
2023-01-29T13:30:27.925Z,17.25
2023-01-29T13:33:09.043Z,12.13
2023-01-29T13:35:42.920Z,16.88
2023-01-29T13:38:25.462Z,13.85
2023-01-29T13:40:56.874Z,15.10
2023-01-29T13:43:25.353Z,9.40
2023-01-29T13:45:55.589Z,10.02
2023-01-29T13:48:27.180Z,13.10
2023-01-29T13:51:00.711Z,7.45
2023-01-29T13:53:33.053Z,15.13
2023-01-29T13:56:33.966Z,15.32
2023-01-29T13:59:03.242Z,9.40
2023-01-29T14:02:03.830Z,12.85
2023-01-29T14:04:34.197Z,11.88
2023-01-29T14:07:04.165Z,10.38
2023-01-29T14:10:14.093Z,12.52
2023-01-29T14:13:15.004Z,13.68
2023-01-29T14:15:42.860Z,7.82
2023-01-29T14:18:20.610Z,22.02
2023-01-29T14:21:22.032Z,14.00
2023-01-29T14:23:53.665Z,14.75
2023-01-29T14:26:30.020Z,15.38
2023-01-29T14:29:01.605Z,13.43
2023-01-29T14:31:40.845Z,11.20
2023-01-29T14:34:17.869Z,11.05
2023-01-29T14:36:47.333Z,10.93
2023-01-29T14:39:26.158Z,13.85
2023-01-29T14:41:54.181Z,15.23
2023-01-29T14:45:05.137Z,13.15
2023-01-29T14:47:56.326Z,13.93
2023-01-29T14:50:59.210Z,12.52
2023-01-29T14:53:45.760Z,12.70
2023-01-29T14:56:18.447Z,16.75
2023-01-29T14:58:49.192Z,9.95
2023-01-29T15:01:23.340Z,16.38
2023-01-29T15:03:53.304Z,16.63
2023-01-29T15:06:31.608Z,14.70
2023-01-29T15:09:06.904Z,12.85
2023-01-29T15:11:45.360Z,13.95
2023-01-29T15:14:24.003Z,18.15
2023-01-29T15:17:11.617Z,19.42
2023-01-29T15:19:44.816Z,15.75
2023-01-29T15:22:14.277Z,18.02
2023-01-29T15:24:44.734Z,15.27
2023-01-29T15:27:16.932Z,17.13
2023-01-29T15:29:51.118Z,15.95
2023-01-29T15:32:30.789Z,15.35
2023-01-29T15:35:00.344Z,15.82
2023-01-29T15:37:30.870Z,14.90
2023-01-29T15:40:00.135Z,17.85
2023-01-29T15:42:30.426Z,12.43
2023-01-29T15:44:58.257Z,16.10
2023-01-29T15:47:30.052Z,19.73
2023-01-29T15:49:58.395Z,12.88
2023-01-29T15:52:29.776Z,17.30
2023-01-29T15:55:02.665Z,13.43
2023-01-29T15:57:37.267Z,23.30
2023-01-29T16:00:07.756Z,16.77
2023-01-29T16:02:42.759Z,22.42
2023-01-29T16:05:17.359Z,17.77
2023-01-29T16:07:46.649Z,17.23
2023-01-29T16:10:20.176Z,21.63
2023-01-29T16:12:52.180Z,18.17
2023-01-29T16:15:37.302Z,16.02
2023-01-29T16:18:20.981Z,17.77
2023-01-29T16:20:53.331Z,14.23
2023-01-29T16:23:25.315Z,14.18
2023-01-29T16:25:53.391Z,13.70
2023-01-29T16:28:25.565Z,17.60
2023-01-29T16:30:58.061Z,17.48
2023-01-29T16:33:34.291Z,14.02
2023-01-29T16:36:05.452Z,17.05
2023-01-29T16:38:36.757Z,17.88
2023-01-29T16:41:14.656Z,19.55
2023-01-29T16:43:53.076Z,15.25
2023-01-29T16:46:32.838Z,17.05
2023-01-29T16:49:01.288Z,22.13
2023-01-29T16:51:31.345Z,17.23
2023-01-29T16:54:01.740Z,17.35
2023-01-29T16:56:33.223Z,17.05
2023-01-29T16:59:05.502Z,14.95
2023-01-29T17:01:36.462Z,16.45
2023-01-29T17:04:11.175Z,19.20
2023-01-29T17:06:41.261Z,16.90
2023-01-29T17:09:09.381Z,16.70
2023-01-29T17:11:39.826Z,14.32
2023-01-29T17:14:11.207Z,17.48
2023-01-29T17:16:50.527Z,14.82
2023-01-29T17:19:20.675Z,15.73
2023-01-29T17:21:48.764Z,16.15
2023-01-29T17:24:16.518Z,14.93
2023-01-29T17:26:44.599Z,17.15
2023-01-29T17:29:18.502Z,15.13
2023-01-29T17:31:46.267Z,15.35
2023-01-29T17:34:15.881Z,20.27
2023-01-29T17:36:44.398Z,15.32
2023-01-29T17:39:20.833Z,14.70
2023-01-29T17:41:52.007Z,17.65
2023-01-29T17:44:21.249Z,17.83
2023-01-29T17:46:49.761Z,19.15
2023-01-29T17:49:24.115Z,15.15
2023-01-29T17:51:52.235Z,18.85
2023-01-29T17:54:20.186Z,19.83
2023-01-29T17:56:48.098Z,15.23
2023-01-29T17:59:17.478Z,15.98
2023-01-29T18:01:47.183Z,18.27
2023-01-29T18:04:15.377Z,23.75
2023-01-29T18:06:45.108Z,17.52
2023-01-29T18:09:14.704Z,18.27
2023-01-29T18:11:42.728Z,19.50
2023-01-29T18:14:14.439Z,12.23
2023-01-29T18:16:44.003Z,15.65
2023-01-29T18:19:19.700Z,17.70
2023-01-29T18:21:47.628Z,16.90
2023-01-29T18:24:15.767Z,14.02
2023-01-29T18:26:43.832Z,18.30
2023-01-29T18:29:11.631Z,22.40
2023-01-29T18:31:39.513Z,15.35
2023-01-29T18:34:07.999Z,14.95
2023-01-29T18:36:37.149Z,18.48
2023-01-29T18:39:05.174Z,14.93
2023-01-29T18:41:34.001Z,16.15
2023-01-29T18:44:01.901Z,15.20
2023-01-29T18:46:29.698Z,23.98
2023-01-29T18:48:57.503Z,13.20
2023-01-29T18:51:25.264Z,13.88
2023-01-29T18:53:54.444Z,11.93
2023-01-29T18:56:22.239Z,20.75
2023-01-29T18:58:52.365Z,16.75
2023-01-29T19:01:23.712Z,18.27
2023-01-29T19:03:52.039Z,16.25
2023-01-29T19:06:19.851Z,16.73
2023-01-29T19:08:47.946Z,15.20
2023-01-29T19:11:17.117Z,14.40
2023-01-29T19:13:46.037Z,13.90
2023-01-29T19:16:14.205Z,14.52
2023-01-29T19:18:42.018Z,17.33
2023-01-29T19:21:11.732Z,12.20
2023-01-29T19:23:39.945Z,15.15
2023-01-29T19:26:09.397Z,13.13
2023-01-29T19:28:38.545Z,14.38
2023-01-29T19:31:06.455Z,11.18
2023-01-29T19:33:34.698Z,13.75
2023-01-29T19:36:03.015Z,10.07
2023-01-29T19:38:33.445Z,12.45
2023-01-29T19:41:01.326Z,13.13
2023-01-29T19:43:30.438Z,14.25
2023-01-29T19:46:00.715Z,8.48
2023-01-29T19:48:28.888Z,6.55
2023-01-29T19:50:57.985Z,13.30
2023-01-29T19:53:28.118Z,9.13
2023-01-29T19:56:00.132Z,14.32
2023-01-29T19:58:28.060Z,10.27
2023-01-29T20:00:57.205Z,12.52
2023-01-29T20:03:27.258Z,11.85
2023-01-29T20:05:55.128Z,10.18
2023-01-29T20:08:23.886Z,12.23
2023-01-29T20:10:51.805Z,13.07
2023-01-29T20:13:19.592Z,10.63
2023-01-29T20:15:48.193Z,9.48
2023-01-29T20:18:16.982Z,12.55
2023-01-29T20:20:47.965Z,9.85
2023-01-29T20:23:35.255Z,8.25
2023-01-29T20:26:05.611Z,11.10
2023-01-29T20:28:33.507Z,10.43
2023-01-29T20:31:01.644Z,9.70
2023-01-29T20:33:29.501Z,12.07
2023-01-29T20:36:00.789Z,7.82
2023-01-29T20:38:31.462Z,9.45
2023-01-29T20:41:04.905Z,9.50
2023-01-29T20:43:33.250Z,10.43
2023-01-29T20:46:01.971Z,9.88
2023-01-29T20:48:29.905Z,7.78
2023-01-29T20:51:04.673Z,6.32
2023-01-29T20:53:32.531Z,10.25
2023-01-29T20:56:01.036Z,11.48
2023-01-29T20:58:29.971Z,10.30
2023-01-29T21:00:57.923Z,9.95
2023-01-29T21:03:25.941Z,8.13
2023-01-29T21:05:54.295Z,10.10
2023-01-29T21:08:23.478Z,9.98
2023-01-29T21:10:53.309Z,9.85
2023-01-29T21:13:21.323Z,11.88
2023-01-29T21:15:50.554Z,6.88
2023-01-29T21:18:18.992Z,11.20
2023-01-29T21:20:46.763Z,7.40
2023-01-29T21:23:14.855Z,9.13
2023-01-29T21:25:45.123Z,9.02
2023-01-29T21:28:13.782Z,7.35
2023-01-29T21:30:41.927Z,8.82
2023-01-29T21:33:09.776Z,8.93
2023-01-29T21:35:38.423Z,11.75
2023-01-29T21:38:38.933Z,10.25
2023-01-29T21:41:10.264Z,9.07
2023-01-29T21:43:37.092Z,11.77
2023-01-29T21:46:11.454Z,7.72
2023-01-29T21:48:40.428Z,9.20
2023-01-29T21:51:08.698Z,9.13
2023-01-29T21:53:36.678Z,8.38
2023-01-29T21:56:06.348Z,8.60
2023-01-29T21:58:35.475Z,10.93
2023-01-29T22:01:18.570Z,16.20
2023-01-29T22:03:51.001Z,7.30
2023-01-29T22:06:18.867Z,17.75
2023-01-29T22:08:47.069Z,10.00
2023-01-29T22:11:14.909Z,7.25
2023-01-29T22:13:44.207Z,10.57
2023-01-29T22:16:12.100Z,10.32
2023-01-29T22:18:39.914Z,9.65
2023-01-29T22:21:07.717Z,8.80
2023-01-29T22:23:35.500Z,9.65
2023-01-29T22:26:04.373Z,9.65
2023-01-29T22:28:32.231Z,11.82
2023-01-29T22:31:03.141Z,11.75
2023-01-29T22:33:31.213Z,6.95
2023-01-29T22:35:59.038Z,12.27
2023-01-29T22:38:27.103Z,6.55
2023-01-29T22:40:56.140Z,9.27
2023-01-29T22:43:25.919Z,12.07
2023-01-29T22:45:53.862Z,13.82
2023-01-29T22:48:23.917Z,13.50
2023-01-29T22:51:10.161Z,16.42
2023-01-29T22:53:44.417Z,11.73
2023-01-29T22:56:12.864Z,8.80
2023-01-29T22:58:41.160Z,7.53
2023-01-29T23:01:09.803Z,7.95
2023-01-29T23:03:38.996Z,12.85
2023-01-29T23:06:06.952Z,10.55
2023-01-29T23:08:34.886Z,6.57
2023-01-29T23:11:13.927Z,16.83
2023-01-29T23:13:43.047Z,13.35
2023-01-29T23:16:11.240Z,14.07
2023-01-29T23:18:40.469Z,12.75
2023-01-29T23:21:08.742Z,12.65
2023-01-29T23:23:37.813Z,10.35
2023-01-29T23:26:25.689Z,12.55
2023-01-29T23:28:53.534Z,7.30
2023-01-29T23:31:21.390Z,14.73
2023-01-29T23:33:50.677Z,12.23
2023-01-29T23:36:18.571Z,13.02
2023-01-29T23:38:46.476Z,10.55
2023-01-29T23:41:14.490Z,13.57
2023-01-29T23:43:42.551Z,10.40
2023-01-29T23:46:10.681Z,11.23
2023-01-29T23:48:38.494Z,16.73
2023-01-29T23:51:07.823Z,13.23
2023-01-29T23:53:35.760Z,13.80
2023-01-29T23:56:05.835Z,13.40
2023-01-29T23:58:34.404Z,11.07
